Weather at Shanghai Pudong International Airport

Public forecast

Using degrees Celsius for public forecast. Weather courtesy of forecast.io.

Current aviation weather report (METAR) for Shanghai Pudong International Airport

Retrieved 2020/11/30 14:30 UTC (0 seconds ago):

ZSPD 301430Z 36005MPS CAVOK 10/06 Q1034 NOSIG

Aviation forecast (TAF) for Shanghai Pudong International Airport

Retrieved 2020/11/30 12:03 UTC (2 hours ago):

TAF ZSPD 300910Z 3012/0112 03004MPS 6000 BKN020 TX13/0106Z TN07/3021Z